ESSL

Linköping City Airport

Linköping, Sweden
METAR ESSL 181750Z 18005KT CAVOK 21/10 Q1008
Observed Flight Rules
Sep-18 @ 17:50 UTC (18 minutes ago) Visual Flight Rules
Wind Visibility Clouds
180° at 5 knots 10,000+ meters
  • Clear skies
Temperatures Readings
Current 21°C / 70°F
Dewpoint 10°C / 50°F
Humidity 50%
Altimeter 29.76" Hg
Pressure 1008 hPa
Elevation 52
METAR ESSL 181750Z 18005KT CAVOK 21/10 Q1008
Observed Flight Rules
Sep-18 @ 17:50 UTC
(18 minutes ago)
VFR
Wind Visibility
180° at 5 knots 10,000+ meters
Clouds
  • Clear skies
Temperature Dewpoint
21°C / 70°F 10°C / 50°F
Humidity Altimeter Pressure
50% 29.76" Hg 1008 hPa